sensor_id;sensor_type;location;lat;lon;timestamp;temperature;humidity
5415;DHT22;2730;51.512;7.504;2023-02-01T06:00:46;5.70;99.90
5415;DHT22;2730;51.512;7.504;2023-02-01T06:03:12;5.80;99.90
5415;DHT22;2730;51.512;7.504;2023-02-01T06:05:39;5.80;99.90
5415;DHT22;2730;51.512;7.504;2023-02-01T06:08:06;5.80;99.90
5415;DHT22;2730;51.512;7.504;2023-02-01T06:10:34;5.80;99.90
5415;DHT22;2730;51.512;7.504;2023-02-01T06:13:01;5.70;99.90
5415;DHT22;2730;51.512;7.504;2023-02-01T06:15:28;5.70;99.90
5415;DHT22;2730;51.512;7.504;2023-02-01T06:17:57;5.70;99.90
5415;DHT22;2730;51.512;7.504;2023-02-01T06:20:24;5.60;99.90
5415;DHT22;2730;51.512;7.504;2023-02-01T06:22:51;5.70;99.90
5415;DHT22;2730;51.512;7.504;2023-02-01T06:25:18;5.70;99.90
5415;DHT22;2730;51.512;7.504;2023-02-01T06:27:46;5.60;99.90
5415;DHT22;2730;51.512;7.504;2023-02-01T06:30:14;5.70;99.90
5415;DHT22;2730;51.512;7.504;2023-02-01T06:32:41;5.70;99.90
5415;DHT22;2730;51.512;7.504;2023-02-01T06:35:10;5.70;99.90
5415;DHT22;2730;51.512;7.504;2023-02-01T06:37:42;5.60;99.90
5415;DHT22;2730;51.512;7.504;2023-02-01T06:40:10;5.60;99.90
5415;DHT22;2730;51.512;7.504;2023-02-01T06:42:37;5.70;99.90
5415;DHT22;2730;51.512;7.504;2023-02-01T06:45:04;5.70;99.90
5415;DHT22;2730;51.512;7.504;2023-02-01T06:47:32;5.70;99.90
5415;DHT22;2730;51.512;7.504;2023-02-01T06:49:58;5.70;99.90
5415;DHT22;2730;51.512;7.504;2023-02-01T06:52:27;5.70;99.90
5415;DHT22;2730;51.512;7.504;2023-02-01T06:54:54;5.70;99.90
5415;DHT22;2730;51.512;7.504;2023-02-01T06:57:21;5.80;99.90
5415;DHT22;2730;51.512;7.504;2023-02-01T06:59:48;5.70;99.90
5415;DHT22;2730;51.512;7.504;2023-02-01T07:02:14;5.90;99.90
5415;DHT22;2730;51.512;7.504;2023-02-01T07:04:41;5.80;99.90
5415;DHT22;2730;51.512;7.504;2023-02-01T07:07:08;5.80;99.90
5415;DHT22;2730;51.512;7.504;2023-02-01T07:09:36;5.90;99.90
5415;DHT22;2730;51.512;7.504;2023-02-01T07:12:03;5.90;99.90
5415;DHT22;2730;51.512;7.504;2023-02-01T07:14:30;5.90;99.90
5415;DHT22;2730;51.512;7.504;2023-02-01T07:16:57;5.90;99.90
5415;DHT22;2730;51.512;7.504;2023-02-01T07:19:24;5.90;99.90
5415;DHT22;2730;51.512;7.504;2023-02-01T07:21:51;5.90;99.90
5415;DHT22;2730;51.512;7.504;2023-02-01T07:24:18;5.90;99.90
5415;DHT22;2730;51.512;7.504;2023-02-01T07:26:46;6.00;99.90
5415;DHT22;2730;51.512;7.504;2023-02-01T07:29:16;6.00;99.90
5415;DHT22;2730;51.512;7.504;2023-02-01T07:31:43;5.90;99.90
5415;DHT22;2730;51.512;7.504;2023-02-01T07:34:10;5.90;99.90
5415;DHT22;2730;51.512;7.504;2023-02-01T07:36:37;5.90;99.90
5415;DHT22;2730;51.512;7.504;2023-02-01T07:39:04;5.90;99.90
5415;DHT22;2730;51.512;7.504;2023-02-01T07:41:31;5.90;99.90
5415;DHT22;2730;51.512;7.504;2023-02-01T07:43:59;5.90;99.90
5415;DHT22;2730;51.512;7.504;2023-02-01T07:46:26;5.90;99.90
5415;DHT22;2730;51.512;7.504;2023-02-01T07:48:53;5.90;99.90
5415;DHT22;2730;51.512;7.504;2023-02-01T07:51:20;5.90;99.90
5415;DHT22;2730;51.512;7.504;2023-02-01T07:53:47;5.90;99.90
5415;DHT22;2730;51.512;7.504;2023-02-01T07:56:16;6.00;99.90
5415;DHT22;2730;51.512;7.504;2023-02-01T07:58:46;6.10;99.90
5415;DHT22;2730;51.512;7.504;2023-02-01T08:01:16;6.10;99.90
5415;DHT22;2730;51.512;7.504;2023-02-01T08:03:47;6.00;99.90
5415;DHT22;2730;51.512;7.504;2023-02-01T08:06:14;6.00;99.90
5415;DHT22;2730;51.512;7.504;2023-02-01T08:08:41;6.00;99.90
5415;DHT22;2730;51.512;7.504;2023-02-01T08:11:08;6.10;99.90
5415;DHT22;2730;51.512;7.504;2023-02-01T08:13:35;6.10;99.90
5415;DHT22;2730;51.512;7.504;2023-02-01T08:16:03;6.00;99.90
5415;DHT22;2730;51.512;7.504;2023-02-01T08:18:32;6.10;99.90
5415;DHT22;2730;51.512;7.504;2023-02-01T08:21:03;6.10;99.90
5415;DHT22;2730;51.512;7.504;2023-02-01T08:23:30;6.10;99.90
5415;DHT22;2730;51.512;7.504;2023-02-01T08:26:05;6.10;99.90
5415;DHT22;2730;51.512;7.504;2023-02-01T08:28:32;6.10;99.90
5415;DHT22;2730;51.512;7.504;2023-02-01T08:30:59;6.20;99.90
5415;DHT22;2730;51.512;7.504;2023-02-01T08:33:25;6.10;99.90
5415;DHT22;2730;51.512;7.504;2023-02-01T08:35:54;6.10;99.90
5415;DHT22;2730;51.512;7.504;2023-02-01T08:38:21;6.00;99.90
5415;DHT22;2730;51.512;7.504;2023-02-01T08:40:47;6.10;99.90
5415;DHT22;2730;51.512;7.504;2023-02-01T08:43:14;6.00;99.90
5415;DHT22;2730;51.512;7.504;2023-02-01T08:45:41;6.20;99.90
5415;DHT22;2730;51.512;7.504;2023-02-01T08:48:08;6.20;99.90
5415;DHT22;2730;51.512;7.504;2023-02-01T08:50:35;6.30;99.90
5415;DHT22;2730;51.512;7.504;2023-02-01T08:53:03;6.30;99.90
5415;DHT22;2730;51.512;7.504;2023-02-01T08:55:30;6.30;99.90
5415;DHT22;2730;51.512;7.504;2023-02-01T08:57:57;6.40;99.90
5415;DHT22;2730;51.512;7.504;2023-02-01T09:00:24;6.30;99.90
5415;DHT22;2730;51.512;7.504;2023-02-01T09:02:51;6.40;99.90
5415;DHT22;2730;51.512;7.504;2023-02-01T09:05:17;6.40;99.90
5415;DHT22;2730;51.512;7.504;2023-02-01T09:07:47;6.40;99.90
5415;DHT22;2730;51.512;7.504;2023-02-01T09:10:16;6.40;99.90
5415;DHT22;2730;51.512;7.504;2023-02-01T09:12:43;6.40;99.90
5415;DHT22;2730;51.512;7.504;2023-02-01T09:15:10;6.30;99.90
5415;DHT22;2730;51.512;7.504;2023-02-01T09:17:37;6.30;99.90
5415;DHT22;2730;51.512;7.504;2023-02-01T09:20:04;6.30;99.90
5415;DHT22;2730;51.512;7.504;2023-02-01T09:22:31;6.40;99.90
5415;DHT22;2730;51.512;7.504;2023-02-01T09:24:58;6.50;99.90
5415;DHT22;2730;51.512;7.504;2023-02-01T09:27:26;6.60;99.90
5415;DHT22;2730;51.512;7.504;2023-02-01T09:29:53;6.60;99.90
5415;DHT22;2730;51.512;7.504;2023-02-01T09:32:22;6.60;99.90
5415;DHT22;2730;51.512;7.504;2023-02-01T09:34:49;6.60;99.90
5415;DHT22;2730;51.512;7.504;2023-02-01T09:37:17;6.60;99.90
5415;DHT22;2730;51.512;7.504;2023-02-01T09:39:44;6.40;99.90
5415;DHT22;2730;51.512;7.504;2023-02-01T09:42:19;6.50;99.90
5415;DHT22;2730;51.512;7.504;2023-02-01T09:45:06;6.50;99.90
5415;DHT22;2730;51.512;7.504;2023-02-01T09:47:43;6.50;99.90
5415;DHT22;2730;51.512;7.504;2023-02-01T09:50:16;6.60;99.90
5415;DHT22;2730;51.512;7.504;2023-02-01T09:52:50;6.60;99.90
5415;DHT22;2730;51.512;7.504;2023-02-01T09:55:22;6.50;99.90
5415;DHT22;2730;51.512;7.504;2023-02-01T09:57:54;6.50;99.90
5415;DHT22;2730;51.512;7.504;2023-02-01T10:00:27;6.60;99.90
5415;DHT22;2730;51.512;7.504;2023-02-01T10:02:56;6.50;99.90
5415;DHT22;2730;51.512;7.504;2023-02-01T10:05:36;6.50;99.90
5415;DHT22;2730;51.512;7.504;2023-02-01T10:08:11;6.50;99.90
5415;DHT22;2730;51.512;7.504;2023-02-01T10:10:45;6.50;99.90
5415;DHT22;2730;51.512;7.504;2023-02-01T10:13:26;6.50;99.90
5415;DHT22;2730;51.512;7.504;2023-02-01T10:16:13;6.60;99.90
5415;DHT22;2730;51.512;7.504;2023-02-01T10:18:57;6.60;99.90
5415;DHT22;2730;51.512;7.504;2023-02-01T10:21:36;6.70;99.90
5415;DHT22;2730;51.512;7.504;2023-02-01T10:24:36;6.70;99.90
5415;DHT22;2730;51.512;7.504;2023-02-01T10:27:12;6.60;99.90
5415;DHT22;2730;51.512;7.504;2023-02-01T10:29:42;6.70;99.90
5415;DHT22;2730;51.512;7.504;2023-02-01T10:32:18;6.70;99.90
5415;DHT22;2730;51.512;7.504;2023-02-01T10:34:48;6.80;99.90
5415;DHT22;2730;51.512;7.504;2023-02-01T10:37:26;6.70;99.90
5415;DHT22;2730;51.512;7.504;2023-02-01T10:39:55;6.70;99.90
5415;DHT22;2730;51.512;7.504;2023-02-01T10:42:25;6.80;99.90
5415;DHT22;2730;51.512;7.504;2023-02-01T10:44:54;6.80;99.90
5415;DHT22;2730;51.512;7.504;2023-02-01T10:47:23;6.90;99.90
5415;DHT22;2730;51.512;7.504;2023-02-01T10:49:55;6.90;99.90
5415;DHT22;2730;51.512;7.504;2023-02-01T10:52:34;6.80;99.90
5415;DHT22;2730;51.512;7.504;2023-02-01T10:55:37;6.80;99.90
5415;DHT22;2730;51.512;7.504;2023-02-01T10:58:06;6.80;99.90
5415;DHT22;2730;51.512;7.504;2023-02-01T11:00:45;6.80;99.90
5415;DHT22;2730;51.512;7.504;2023-02-01T11:03:34;6.80;99.90
5415;DHT22;2730;51.512;7.504;2023-02-01T11:06:13;6.80;99.90
5415;DHT22;2730;51.512;7.504;2023-02-01T11:08:45;6.80;99.90
5415;DHT22;2730;51.512;7.504;2023-02-01T11:11:12;6.80;99.90
5415;DHT22;2730;51.512;7.504;2023-02-01T11:13:39;6.70;99.90
5415;DHT22;2730;51.512;7.504;2023-02-01T11:16:08;6.70;99.90
5415;DHT22;2730;51.512;7.504;2023-02-01T11:18:38;6.70;99.90
5415;DHT22;2730;51.512;7.504;2023-02-01T11:21:07;6.70;99.90
5415;DHT22;2730;51.512;7.504;2023-02-01T11:23:40;6.70;99.90
5415;DHT22;2730;51.512;7.504;2023-02-01T11:26:11;6.70;99.90
5415;DHT22;2730;51.512;7.504;2023-02-01T11:28:40;6.70;99.90
5415;DHT22;2730;51.512;7.504;2023-02-01T11:31:12;6.70;99.90
5415;DHT22;2730;51.512;7.504;2023-02-01T11:33:49;6.70;99.90
5415;DHT22;2730;51.512;7.504;2023-02-01T11:36:18;6.80;99.90
5415;DHT22;2730;51.512;7.504;2023-02-01T11:38:52;6.90;99.90
5415;DHT22;2730;51.512;7.504;2023-02-01T11:41:22;7.00;96.30
5415;DHT22;2730;51.512;7.504;2023-02-01T11:43:55;6.90;99.90
5415;DHT22;2730;51.512;7.504;2023-02-01T11:46:24;7.00;99.40
5415;DHT22;2730;51.512;7.504;2023-02-01T11:48:56;7.10;95.70
5415;DHT22;2730;51.512;7.504;2023-02-01T11:51:36;7.10;57.40
5415;DHT22;2730;51.512;7.504;2023-02-01T11:54:15;7.10;1.00
5415;DHT22;2730;51.512;7.504;2023-02-01T11:56:51;7.20;1.00
5415;DHT22;2730;51.512;7.504;2023-02-01T11:59:31;7.20;1.00
5415;DHT22;2730;51.512;7.504;2023-02-01T12:02:17;7.20;1.00
5415;DHT22;2730;51.512;7.504;2023-02-01T12:05:16;7.20;1.00
5415;DHT22;2730;51.512;7.504;2023-02-01T12:07:55;7.10;1.00
5415;DHT22;2730;51.512;7.504;2023-02-01T12:10:35;7.10;1.00
5415;DHT22;2730;51.512;7.504;2023-02-01T12:13:13;7.00;30.70
5415;DHT22;2730;51.512;7.504;2023-02-01T12:15:49;6.90;63.50
5415;DHT22;2730;51.512;7.504;2023-02-01T12:18:50;6.70;95.40
5415;DHT22;2730;51.512;7.504;2023-02-01T12:21:34;6.60;99.90
5415;DHT22;2730;51.512;7.504;2023-02-01T12:24:18;6.50;99.90
5415;DHT22;2730;51.512;7.504;2023-02-01T12:26:55;6.40;99.90
5415;DHT22;2730;51.512;7.504;2023-02-01T12:29:53;6.30;99.90
5415;DHT22;2730;51.512;7.504;2023-02-01T12:32:39;6.30;99.90
5415;DHT22;2730;51.512;7.504;2023-02-01T12:35:20;6.30;99.90
5415;DHT22;2730;51.512;7.504;2023-02-01T12:38:06;6.40;99.90
5415;DHT22;2730;51.512;7.504;2023-02-01T12:40:51;6.50;99.90
5415;DHT22;2730;51.512;7.504;2023-02-01T12:43:25;6.40;99.90
5415;DHT22;2730;51.512;7.504;2023-02-01T12:45:58;6.40;99.90
5415;DHT22;2730;51.512;7.504;2023-02-01T12:48:31;6.50;99.90
5415;DHT22;2730;51.512;7.504;2023-02-01T12:51:02;6.50;99.90
5415;DHT22;2730;51.512;7.504;2023-02-01T12:53:42;6.60;99.90
5415;DHT22;2730;51.512;7.504;2023-02-01T12:56:15;6.70;95.30
5415;DHT22;2730;51.512;7.504;2023-02-01T12:58:45;6.70;73.60
5415;DHT22;2730;51.512;7.504;2023-02-01T13:01:16;6.70;78.80
5415;DHT22;2730;51.512;7.504;2023-02-01T13:03:52;6.80;53.80
5415;DHT22;2730;51.512;7.504;2023-02-01T13:06:23;6.80;49.10
5415;DHT22;2730;51.512;7.504;2023-02-01T13:08:58;6.80;56.30
5415;DHT22;2730;51.512;7.504;2023-02-01T13:11:29;6.80;57.00
5415;DHT22;2730;51.512;7.504;2023-02-01T13:14:01;6.90;69.60
5415;DHT22;2730;51.512;7.504;2023-02-01T13:16:32;6.90;77.50
5415;DHT22;2730;51.512;7.504;2023-02-01T13:19:05;6.80;96.70
5415;DHT22;2730;51.512;7.504;2023-02-01T13:21:39;6.70;94.20
5415;DHT22;2730;51.512;7.504;2023-02-01T13:24:33;6.60;99.90
5415;DHT22;2730;51.512;7.504;2023-02-01T13:27:02;6.60;99.90
5415;DHT22;2730;51.512;7.504;2023-02-01T13:29:30;6.50;99.90
5415;DHT22;2730;51.512;7.504;2023-02-01T13:32:20;6.60;99.90
5415;DHT22;2730;51.512;7.504;2023-02-01T13:35:16;6.60;99.90
5415;DHT22;2730;51.512;7.504;2023-02-01T13:38:02;6.60;99.90
5415;DHT22;2730;51.512;7.504;2023-02-01T13:40:40;6.70;99.10
5415;DHT22;2730;51.512;7.504;2023-02-01T13:43:12;6.80;82.80
5415;DHT22;2730;51.512;7.504;2023-02-01T13:45:46;6.80;74.60
5415;DHT22;2730;51.512;7.504;2023-02-01T13:48:23;6.80;61.60
5415;DHT22;2730;51.512;7.504;2023-02-01T13:50:53;6.80;57.90
5415;DHT22;2730;51.512;7.504;2023-02-01T13:53:26;6.90;56.50
5415;DHT22;2730;51.512;7.504;2023-02-01T13:56:00;6.90;32.40
5415;DHT22;2730;51.512;7.504;2023-02-01T13:58:32;6.80;35.80
5415;DHT22;2730;51.512;7.504;2023-02-01T14:04:01;7.00;19.20
5415;DHT22;2730;51.512;7.504;2023-02-01T14:06:42;7.00;15.70
5415;DHT22;2730;51.512;7.504;2023-02-01T14:09:16;7.10;18.70
5415;DHT22;2730;51.512;7.504;2023-02-01T14:11:47;7.10;13.40
5415;DHT22;2730;51.512;7.504;2023-02-01T14:14:45;7.10;6.50
5415;DHT22;2730;51.512;7.504;2023-02-01T14:17:39;7.20;17.40
5415;DHT22;2730;51.512;7.504;2023-02-01T14:23:25;7.10;21.00
5415;DHT22;2730;51.512;7.504;2023-02-01T14:26:09;7.10;14.00
5415;DHT22;2730;51.512;7.504;2023-02-01T14:28:41;7.10;14.60
5415;DHT22;2730;51.512;7.504;2023-02-01T14:31:32;7.20;18.30
5415;DHT22;2730;51.512;7.504;2023-02-01T14:34:02;7.20;19.30
5415;DHT22;2730;51.512;7.504;2023-02-01T14:36:45;7.30;1.50
5415;DHT22;2730;51.512;7.504;2023-02-01T14:39:31;7.30;2.40
5415;DHT22;2730;51.512;7.504;2023-02-01T14:42:02;7.20;28.80
5415;DHT22;2730;51.512;7.504;2023-02-01T14:44:34;7.20;50.10
5415;DHT22;2730;51.512;7.504;2023-02-01T14:47:10;7.10;92.90
5415;DHT22;2730;51.512;7.504;2023-02-01T14:49:42;6.90;99.90
5415;DHT22;2730;51.512;7.504;2023-02-01T14:52:17;6.80;99.90
5415;DHT22;2730;51.512;7.504;2023-02-01T14:54:47;6.80;99.90
5415;DHT22;2730;51.512;7.504;2023-02-01T14:57:16;6.80;99.90
5415;DHT22;2730;51.512;7.504;2023-02-01T14:59:46;6.90;99.90
5415;DHT22;2730;51.512;7.504;2023-02-01T15:02:25;6.90;99.90
5415;DHT22;2730;51.512;7.504;2023-02-01T15:04:55;6.90;99.90
5415;DHT22;2730;51.512;7.504;2023-02-01T15:07:23;6.90;92.40
5415;DHT22;2730;51.512;7.504;2023-02-01T15:09:52;7.00;54.50
5415;DHT22;2730;51.512;7.504;2023-02-01T15:12:24;7.00;63.10
5415;DHT22;2730;51.512;7.504;2023-02-01T15:15:15;7.10;52.90
5415;DHT22;2730;51.512;7.504;2023-02-01T15:17:49;7.10;52.30
5415;DHT22;2730;51.512;7.504;2023-02-01T15:20:18;7.10;53.90
5415;DHT22;2730;51.512;7.504;2023-02-01T15:22:54;7.10;25.80
5415;DHT22;2730;51.512;7.504;2023-02-01T15:25:23;7.20;19.50
5415;DHT22;2730;51.512;7.504;2023-02-01T15:27:51;7.10;14.10
5415;DHT22;2730;51.512;7.504;2023-02-01T15:30:21;7.20;2.40
5415;DHT22;2730;51.512;7.504;2023-02-01T15:32:49;7.20;17.80
5415;DHT22;2730;51.512;7.504;2023-02-01T15:35:33;7.10;98.50
5415;DHT22;2730;51.512;7.504;2023-02-01T15:38:36;6.80;99.90
5415;DHT22;2730;51.512;7.504;2023-02-01T15:41:06;6.70;99.90
5415;DHT22;2730;51.512;7.504;2023-02-01T15:43:37;6.70;99.90
5415;DHT22;2730;51.512;7.504;2023-02-01T15:46:10;6.70;99.90
5415;DHT22;2730;51.512;7.504;2023-02-01T15:48:42;6.70;99.90
5415;DHT22;2730;51.512;7.504;2023-02-01T15:51:19;6.70;99.90
5415;DHT22;2730;51.512;7.504;2023-02-01T15:53:48;6.80;99.90
5415;DHT22;2730;51.512;7.504;2023-02-01T15:56:16;6.90;97.90
5415;DHT22;2730;51.512;7.504;2023-02-01T15:58:53;7.00;90.00
5415;DHT22;2730;51.512;7.504;2023-02-01T16:01:21;7.00;72.20
5415;DHT22;2730;51.512;7.504;2023-02-01T16:03:49;7.00;71.90
5415;DHT22;2730;51.512;7.504;2023-02-01T16:06:28;7.00;66.30
5415;DHT22;2730;51.512;7.504;2023-02-01T16:09:01;7.10;48.80
5415;DHT22;2730;51.512;7.504;2023-02-01T16:11:30;7.10;34.10
5415;DHT22;2730;51.512;7.504;2023-02-01T16:13:57;7.10;34.50
5415;DHT22;2730;51.512;7.504;2023-02-01T16:16:26;7.20;24.90
5415;DHT22;2730;51.512;7.504;2023-02-01T16:18:53;7.20;37.20
5415;DHT22;2730;51.512;7.504;2023-02-01T16:21:20;7.10;42.90
5415;DHT22;2730;51.512;7.504;2023-02-01T16:23:50;7.10;33.50
5415;DHT22;2730;51.512;7.504;2023-02-01T16:26:18;7.10;41.30
5415;DHT22;2730;51.512;7.504;2023-02-01T16:28:45;7.10;25.90
5415;DHT22;2730;51.512;7.504;2023-02-01T16:31:13;7.20;8.40
5415;DHT22;2730;51.512;7.504;2023-02-01T16:33:46;7.20;12.10
5415;DHT22;2730;51.512;7.504;2023-02-01T16:36:14;7.20;15.20
5415;DHT22;2730;51.512;7.504;2023-02-01T16:38:40;7.20;3.20
5415;DHT22;2730;51.512;7.504;2023-02-01T16:41:11;7.20;6.70
5415;DHT22;2730;51.512;7.504;2023-02-01T16:43:38;7.20;13.90
5415;DHT22;2730;51.512;7.504;2023-02-01T16:46:05;7.20;22.90
5415;DHT22;2730;51.512;7.504;2023-02-01T16:48:37;7.10;43.80
5415;DHT22;2730;51.512;7.504;2023-02-01T16:51:11;7.10;91.00
5415;DHT22;2730;51.512;7.504;2023-02-01T16:53:39;7.00;98.10
5415;DHT22;2730;51.512;7.504;2023-02-01T16:56:12;6.90;99.90
5415;DHT22;2730;51.512;7.504;2023-02-01T16:58:40;6.90;99.90
5415;DHT22;2730;51.512;7.504;2023-02-01T17:01:09;6.80;99.90
5415;DHT22;2730;51.512;7.504;2023-02-01T17:03:36;6.70;99.90
5415;DHT22;2730;51.512;7.504;2023-02-01T17:06:04;6.70;99.90
5415;DHT22;2730;51.512;7.504;2023-02-01T17:08:34;6.50;99.90
5415;DHT22;2730;51.512;7.504;2023-02-01T17:11:01;6.50;99.90
5415;DHT22;2730;51.512;7.504;2023-02-01T17:13:28;6.40;99.90
5415;DHT22;2730;51.512;7.504;2023-02-01T17:15:58;6.30;99.90
5415;DHT22;2730;51.512;7.504;2023-02-01T17:18:27;6.10;99.90
5415;DHT22;2730;51.512;7.504;2023-02-01T17:20:56;5.80;99.90
5415;DHT22;2730;51.512;7.504;2023-02-01T17:23:23;5.60;99.90
5415;DHT22;2730;51.512;7.504;2023-02-01T17:25:51;5.50;99.90
5415;DHT22;2730;51.512;7.504;2023-02-01T17:28:18;5.40;99.90
5415;DHT22;2730;51.512;7.504;2023-02-01T17:30:45;5.30;99.90
5415;DHT22;2730;51.512;7.504;2023-02-01T17:33:20;5.30;99.90
5415;DHT22;2730;51.512;7.504;2023-02-01T17:35:47;5.20;99.90
5415;DHT22;2730;51.512;7.504;2023-02-01T17:38:13;5.10;99.90
5415;DHT22;2730;51.512;7.504;2023-02-01T17:40:40;5.10;99.90
5415;DHT22;2730;51.512;7.504;2023-02-01T17:43:12;5.10;99.90
5415;DHT22;2730;51.512;7.504;2023-02-01T17:45:41;5.00;99.90
5415;DHT22;2730;51.512;7.504;2023-02-01T17:48:11;5.00;99.90
5415;DHT22;2730;51.512;7.504;2023-02-01T17:50:38;5.00;99.90
5415;DHT22;2730;51.512;7.504;2023-02-01T17:53:05;5.00;99.90
5415;DHT22;2730;51.512;7.504;2023-02-01T17:55:35;4.90;99.90
5415;DHT22;2730;51.512;7.504;2023-02-01T17:58:02;5.00;99.90
5415;DHT22;2730;51.512;7.504;2023-02-01T18:00:30;5.00;99.90
5415;DHT22;2730;51.512;7.504;2023-02-01T18:02:57;5.00;99.90
5415;DHT22;2730;51.512;7.504;2023-02-01T18:05:28;5.00;99.90
5415;DHT22;2730;51.512;7.504;2023-02-01T18:07:58;5.10;99.90
5415;DHT22;2730;51.512;7.504;2023-02-01T18:10:25;5.10;99.90
5415;DHT22;2730;51.512;7.504;2023-02-01T18:12:52;5.20;99.90
5415;DHT22;2730;51.512;7.504;2023-02-01T18:15:22;5.30;99.90
5415;DHT22;2730;51.512;7.504;2023-02-01T18:17:50;5.40;99.90
5415;DHT22;2730;51.512;7.504;2023-02-01T18:20:19;5.50;99.90
5415;DHT22;2730;51.512;7.504;2023-02-01T18:22:46;5.50;99.90
5415;DHT22;2730;51.512;7.504;2023-02-01T18:25:19;5.50;99.90
5415;DHT22;2730;51.512;7.504;2023-02-01T18:27:46;5.50;99.90
5415;DHT22;2730;51.512;7.504;2023-02-01T18:30:14;5.50;99.90
5415;DHT22;2730;51.512;7.504;2023-02-01T18:32:42;5.50;99.90
5415;DHT22;2730;51.512;7.504;2023-02-01T18:35:19;5.50;99.90
5415;DHT22;2730;51.512;7.504;2023-02-01T18:37:46;5.50;99.90
5415;DHT22;2730;51.512;7.504;2023-02-01T18:40:15;5.30;99.90
5415;DHT22;2730;51.512;7.504;2023-02-01T18:42:42;5.20;99.90
5415;DHT22;2730;51.512;7.504;2023-02-01T18:45:20;5.10;99.90
5415;DHT22;2730;51.512;7.504;2023-02-01T18:47:48;5.10;99.90
5415;DHT22;2730;51.512;7.504;2023-02-01T18:50:16;5.10;99.90
5415;DHT22;2730;51.512;7.504;2023-02-01T18:52:44;5.10;99.90
5415;DHT22;2730;51.512;7.504;2023-02-01T18:55:11;5.10;99.90
5415;DHT22;2730;51.512;7.504;2023-02-01T18:57:39;5.20;99.90
5415;DHT22;2730;51.512;7.504;2023-02-01T19:00:08;5.20;99.90
5415;DHT22;2730;51.512;7.504;2023-02-01T19:02:36;5.20;99.90
5415;DHT22;2730;51.512;7.504;2023-02-01T19:05:04;5.10;99.90
5415;DHT22;2730;51.512;7.504;2023-02-01T19:07:32;5.10;99.90
5415;DHT22;2730;51.512;7.504;2023-02-01T19:09:59;5.10;99.90
5415;DHT22;2730;51.512;7.504;2023-02-01T19:12:26;5.10;99.90
5415;DHT22;2730;51.512;7.504;2023-02-01T19:14:52;5.10;99.90
5415;DHT22;2730;51.512;7.504;2023-02-01T19:17:19;5.10;99.90
5415;DHT22;2730;51.512;7.504;2023-02-01T19:19:46;5.10;99.90
5415;DHT22;2730;51.512;7.504;2023-02-01T19:22:14;5.00;99.90
5415;DHT22;2730;51.512;7.504;2023-02-01T19:24:43;5.00;99.90
5415;DHT22;2730;51.512;7.504;2023-02-01T19:27:10;5.00;99.90
5415;DHT22;2730;51.512;7.504;2023-02-01T19:29:37;4.90;99.90
5415;DHT22;2730;51.512;7.504;2023-02-01T19:32:05;4.90;99.90
5415;DHT22;2730;51.512;7.504;2023-02-01T19:34:32;4.90;99.90
5415;DHT22;2730;51.512;7.504;2023-02-01T19:36:59;4.90;99.90
5415;DHT22;2730;51.512;7.504;2023-02-01T19:39:26;4.90;99.90
5415;DHT22;2730;51.512;7.504;2023-02-01T19:41:54;5.00;99.90
5415;DHT22;2730;51.512;7.504;2023-02-01T19:44:22;5.00;99.90
5415;DHT22;2730;51.512;7.504;2023-02-01T19:46:49;5.00;99.90
5415;DHT22;2730;51.512;7.504;2023-02-01T19:49:16;5.00;99.90
5415;DHT22;2730;51.512;7.504;2023-02-01T19:51:43;5.10;99.90
5415;DHT22;2730;51.512;7.504;2023-02-01T19:54:10;5.10;99.90
5415;DHT22;2730;51.512;7.504;2023-02-01T19:56:37;5.20;99.90
5415;DHT22;2730;51.512;7.504;2023-02-01T19:59:05;5.20;99.90
5415;DHT22;2730;51.512;7.504;2023-02-01T20:01:33;5.30;99.90
5415;DHT22;2730;51.512;7.504;2023-02-01T20:04:02;5.30;99.90
5415;DHT22;2730;51.512;7.504;2023-02-01T20:06:32;5.40;99.90
5415;DHT22;2730;51.512;7.504;2023-02-01T20:09:00;5.40;99.90
5415;DHT22;2730;51.512;7.504;2023-02-01T20:11:26;5.40;99.90
5415;DHT22;2730;51.512;7.504;2023-02-01T20:13:53;5.40;99.90
5415;DHT22;2730;51.512;7.504;2023-02-01T20:16:22;5.40;99.90
5415;DHT22;2730;51.512;7.504;2023-02-01T20:18:50;5.40;99.90
5415;DHT22;2730;51.512;7.504;2023-02-01T20:21:17;5.30;99.90
5415;DHT22;2730;51.512;7.504;2023-02-01T20:23:44;5.30;99.90
5415;DHT22;2730;51.512;7.504;2023-02-01T20:26:12;5.30;99.90
5415;DHT22;2730;51.512;7.504;2023-02-01T20:28:39;5.30;99.90
5415;DHT22;2730;51.512;7.504;2023-02-01T20:31:07;5.30;99.90
5415;DHT22;2730;51.512;7.504;2023-02-01T20:33:36;5.20;99.90
5415;DHT22;2730;51.512;7.504;2023-02-01T20:36:03;5.20;99.90
5415;DHT22;2730;51.512;7.504;2023-02-01T20:38:30;5.20;99.90
5415;DHT22;2730;51.512;7.504;2023-02-01T20:41:04;5.30;99.90
5415;DHT22;2730;51.512;7.504;2023-02-01T20:43:31;5.20;99.90
5415;DHT22;2730;51.512;7.504;2023-02-01T20:45:58;5.20;99.90
5415;DHT22;2730;51.512;7.504;2023-02-01T20:48:25;5.20;99.90
5415;DHT22;2730;51.512;7.504;2023-02-01T20:50:53;5.20;99.90
5415;DHT22;2730;51.512;7.504;2023-02-01T20:53:21;5.20;99.90
5415;DHT22;2730;51.512;7.504;2023-02-01T20:55:50;5.20;99.90
5415;DHT22;2730;51.512;7.504;2023-02-01T20:58:17;5.20;99.90
5415;DHT22;2730;51.512;7.504;2023-02-01T21:00:44;5.20;99.90
5415;DHT22;2730;51.512;7.504;2023-02-01T21:03:11;5.20;99.90
5415;DHT22;2730;51.512;7.504;2023-02-01T21:05:38;5.20;99.90
5415;DHT22;2730;51.512;7.504;2023-02-01T21:08:11;5.20;99.90
5415;DHT22;2730;51.512;7.504;2023-02-01T21:10:38;5.20;99.90
5415;DHT22;2730;51.512;7.504;2023-02-01T21:13:06;5.20;99.90
5415;DHT22;2730;51.512;7.504;2023-02-01T21:15:33;5.20;99.90
5415;DHT22;2730;51.512;7.504;2023-02-01T21:18:01;5.30;99.90
5415;DHT22;2730;51.512;7.504;2023-02-01T21:20:28;5.30;99.90
5415;DHT22;2730;51.512;7.504;2023-02-01T21:22:55;5.30;99.90
5415;DHT22;2730;51.512;7.504;2023-02-01T21:25:23;5.30;99.90
5415;DHT22;2730;51.512;7.504;2023-02-01T21:27:50;5.30;99.90
5415;DHT22;2730;51.512;7.504;2023-02-01T21:30:17;5.30;99.90
5415;DHT22;2730;51.512;7.504;2023-02-01T21:32:44;5.30;99.90
5415;DHT22;2730;51.512;7.504;2023-02-01T21:35:14;5.30;99.90
5415;DHT22;2730;51.512;7.504;2023-02-01T21:37:41;5.30;99.90
5415;DHT22;2730;51.512;7.504;2023-02-01T21:40:09;5.30;99.90
5415;DHT22;2730;51.512;7.504;2023-02-01T21:42:37;5.20;99.90
5415;DHT22;2730;51.512;7.504;2023-02-01T21:45:08;5.20;99.90
5415;DHT22;2730;51.512;7.504;2023-02-01T21:47:35;5.20;99.90
5415;DHT22;2730;51.512;7.504;2023-02-01T21:50:04;5.10;99.90
5415;DHT22;2730;51.512;7.504;2023-02-01T21:52:31;5.10;99.90
5415;DHT22;2730;51.512;7.504;2023-02-01T21:54:59;5.10;99.90
5415;DHT22;2730;51.512;7.504;2023-02-01T21:57:26;5.10;99.90
5415;DHT22;2730;51.512;7.504;2023-02-01T21:59:55;5.10;99.90
5415;DHT22;2730;51.512;7.504;2023-02-01T22:02:23;5.10;99.90
5415;DHT22;2730;51.512;7.504;2023-02-01T22:04:50;5.10;99.90
5415;DHT22;2730;51.512;7.504;2023-02-01T22:07:17;5.10;99.90
5415;DHT22;2730;51.512;7.504;2023-02-01T22:09:44;5.10;99.90
5415;DHT22;2730;51.512;7.504;2023-02-01T22:12:12;5.10;99.90
5415;DHT22;2730;51.512;7.504;2023-02-01T22:14:39;5.00;99.90
5415;DHT22;2730;51.512;7.504;2023-02-01T22:17:10;5.00;99.90
5415;DHT22;2730;51.512;7.504;2023-02-01T22:19:38;5.00;99.90
5415;DHT22;2730;51.512;7.504;2023-02-01T22:22:05;4.90;99.90
5415;DHT22;2730;51.512;7.504;2023-02-01T22:24:32;4.90;99.90
5415;DHT22;2730;51.512;7.504;2023-02-01T22:27:00;4.80;99.90
5415;DHT22;2730;51.512;7.504;2023-02-01T22:29:27;4.80;99.90
5415;DHT22;2730;51.512;7.504;2023-02-01T22:31:54;4.80;99.90
5415;DHT22;2730;51.512;7.504;2023-02-01T22:34:22;4.80;99.90
5415;DHT22;2730;51.512;7.504;2023-02-01T22:36:48;4.80;99.90
5415;DHT22;2730;51.512;7.504;2023-02-01T22:39:15;4.90;99.90
5415;DHT22;2730;51.512;7.504;2023-02-01T22:41:42;4.80;99.90
5415;DHT22;2730;51.512;7.504;2023-02-01T22:44:09;4.90;99.90
5415;DHT22;2730;51.512;7.504;2023-02-01T22:46:36;4.80;99.90
5415;DHT22;2730;51.512;7.504;2023-02-01T22:49:03;4.80;99.90